sensor_id;sensor_type;location;lat;lon;timestamp;pressure;altitude;pressure_sealevel;temperature;humidity
38197;BME280;26543;51.976;4.616;2023-06-14T00:00:36;52123.03;;;-140.72;0.00
38197;BME280;26543;51.976;4.616;2023-06-14T00:03:05;52165.63;;;-140.72;0.00
38197;BME280;26543;51.976;4.616;2023-06-14T00:05:31;52204.19;;;-140.72;0.00
38197;BME280;26543;51.976;4.616;2023-06-14T00:07:58;52151.44;;;-140.72;0.00
38197;BME280;26543;51.976;4.616;2023-06-14T00:10:25;52183.91;;;-140.72;0.00
38197;BME280;26543;51.976;4.616;2023-06-14T00:12:55;52159.56;;;-140.72;0.00
38197;BME280;26543;51.976;4.616;2023-06-14T00:15:21;52198.09;;;-140.72;0.00
38197;BME280;26543;51.976;4.616;2023-06-14T00:17:46;52139.25;;;-140.72;0.00
38197;BME280;26543;51.976;4.616;2023-06-14T00:20:12;52157.53;;;-140.72;0.00
38197;BME280;26543;51.976;4.616;2023-06-14T00:22:37;52200.13;;;-140.72;0.00
38197;BME280;26543;51.976;4.616;2023-06-14T00:25:03;52192.00;;;-140.72;0.00
38197;BME280;26543;51.976;4.616;2023-06-14T00:27:29;52155.50;;;-140.72;0.00
38197;BME280;26543;51.976;4.616;2023-06-14T00:29:54;52187.97;;;-140.72;0.00
38197;BME280;26543;51.976;4.616;2023-06-14T00:32:19;52192.00;;;-140.72;0.00
38197;BME280;26543;51.976;4.616;2023-06-14T00:34:49;52161.56;;;-140.72;0.00
38197;BME280;26543;51.976;4.616;2023-06-14T00:37:15;52173.75;;;-140.72;0.00
38197;BME280;26543;51.976;4.616;2023-06-14T00:39:41;52157.53;;;-140.72;0.00
38197;BME280;26543;51.976;4.616;2023-06-14T00:44:53;52200.13;;;-140.72;0.00
38197;BME280;26543;51.976;4.616;2023-06-14T00:47:18;52202.16;;;-140.72;0.00
38197;BME280;26543;51.976;4.616;2023-06-14T00:49:45;52169.69;;;-140.72;0.00
38197;BME280;26543;51.976;4.616;2023-06-14T00:52:11;52200.13;;;-140.72;0.00
38197;BME280;26543;51.976;4.616;2023-06-14T00:54:37;52194.03;;;-140.72;0.00
38197;BME280;26543;51.976;4.616;2023-06-14T00:57:02;52194.03;;;-140.72;0.00
38197;BME280;26543;51.976;4.616;2023-06-14T00:59:28;52210.28;;;-140.72;0.00
38197;BME280;26543;51.976;4.616;2023-06-14T01:01:53;52175.78;;;-140.72;0.00
38197;BME280;26543;51.976;4.616;2023-06-14T01:04:18;52173.75;;;-140.72;0.00
38197;BME280;26543;51.976;4.616;2023-06-14T01:09:12;52242.75;;;-140.72;0.00
38197;BME280;26543;51.976;4.616;2023-06-14T01:11:50;52210.28;;;-140.72;0.00
38197;BME280;26543;51.976;4.616;2023-06-14T01:14:34;52210.28;;;-140.72;0.00
38197;BME280;26543;51.976;4.616;2023-06-14T01:16:59;52222.44;;;-140.72;0.00
38197;BME280;26543;51.976;4.616;2023-06-14T01:19:25;52214.34;;;-140.72;0.00
38197;BME280;26543;51.976;4.616;2023-06-14T01:21:53;52228.53;;;-140.72;0.00
38197;BME280;26543;51.976;4.616;2023-06-14T01:24:18;52230.56;;;-140.72;0.00
38197;BME280;26543;51.976;4.616;2023-06-14T01:26:51;52175.78;;;-140.72;0.00
38197;BME280;26543;51.976;4.616;2023-06-14T01:29:20;52214.34;;;-140.72;0.00
38197;BME280;26543;51.976;4.616;2023-06-14T01:31:46;52198.09;;;-140.72;0.00
38197;BME280;26543;51.976;4.616;2023-06-14T01:34:12;52220.41;;;-140.72;0.00
38197;BME280;26543;51.976;4.616;2023-06-14T01:36:37;52204.19;;;-140.72;0.00
38197;BME280;26543;51.976;4.616;2023-06-14T01:39:05;52228.53;;;-140.72;0.00
38197;BME280;26543;51.976;4.616;2023-06-14T01:41:30;52212.31;;;-140.72;0.00
38197;BME280;26543;51.976;4.616;2023-06-14T01:43:56;52242.75;;;-140.72;0.00
38197;BME280;26543;51.976;4.616;2023-06-14T01:46:22;52228.53;;;-140.72;0.00
38197;BME280;26543;51.976;4.616;2023-06-14T01:48:48;52210.28;;;-140.72;0.00
38197;BME280;26543;51.976;4.616;2023-06-14T01:51:13;52232.59;;;-140.72;0.00
38197;BME280;26543;51.976;4.616;2023-06-14T01:53:38;52244.78;;;-140.72;0.00
38197;BME280;26543;51.976;4.616;2023-06-14T01:56:04;52263.03;;;-140.72;0.00
38197;BME280;26543;51.976;4.616;2023-06-14T01:58:29;52226.50;;;-140.72;0.00
38197;BME280;26543;51.976;4.616;2023-06-14T02:00:54;52218.38;;;-140.72;0.00
38197;BME280;26543;51.976;4.616;2023-06-14T02:03:23;52244.78;;;-140.72;0.00
38197;BME280;26543;51.976;4.616;2023-06-14T02:05:51;52238.69;;;-140.72;0.00
38197;BME280;26543;51.976;4.616;2023-06-14T02:08:16;52250.84;;;-140.72;0.00
38197;BME280;26543;51.976;4.616;2023-06-14T02:10:41;52236.66;;;-140.72;0.00
38197;BME280;26543;51.976;4.616;2023-06-14T02:13:07;52244.78;;;-140.72;0.00
38197;BME280;26543;51.976;4.616;2023-06-14T02:15:32;52254.91;;;-140.72;0.00
38197;BME280;26543;51.976;4.616;2023-06-14T02:18:03;52232.59;;;-140.72;0.00
38197;BME280;26543;51.976;4.616;2023-06-14T02:20:29;52232.59;;;-140.72;0.00
38197;BME280;26543;51.976;4.616;2023-06-14T02:22:54;52200.13;;;-140.72;0.00
38197;BME280;26543;51.976;4.616;2023-06-14T02:25:19;52248.81;;;-140.72;0.00
38197;BME280;26543;51.976;4.616;2023-06-14T02:27:45;52196.06;;;-140.72;0.00
38197;BME280;26543;51.976;4.616;2023-06-14T02:30:10;52240.72;;;-140.72;0.00
38197;BME280;26543;51.976;4.616;2023-06-14T02:32:36;52248.81;;;-140.72;0.00
38197;BME280;26543;51.976;4.616;2023-06-14T02:35:01;52232.59;;;-140.72;0.00
38197;BME280;26543;51.976;4.616;2023-06-14T02:37:28;52261.00;;;-140.72;0.00
38197;BME280;26543;51.976;4.616;2023-06-14T02:39:53;52250.84;;;-140.72;0.00
38197;BME280;26543;51.976;4.616;2023-06-14T02:42:22;52240.72;;;-140.72;0.00
38197;BME280;26543;51.976;4.616;2023-06-14T02:44:49;52246.78;;;-140.72;0.00
38197;BME280;26543;51.976;4.616;2023-06-14T02:47:16;52250.84;;;-140.72;0.00
38197;BME280;26543;51.976;4.616;2023-06-14T02:49:44;52277.22;;;-140.72;0.00
38197;BME280;26543;51.976;4.616;2023-06-14T02:52:11;52224.47;;;-140.72;0.00
38197;BME280;26543;51.976;4.616;2023-06-14T02:54:36;52248.81;;;-140.72;0.00
38197;BME280;26543;51.976;4.616;2023-06-14T02:57:02;52269.13;;;-140.72;0.00
38197;BME280;26543;51.976;4.616;2023-06-14T02:59:27;52240.72;;;-140.72;0.00
38197;BME280;26543;51.976;4.616;2023-06-14T03:01:53;52236.66;;;-140.72;0.00
38197;BME280;26543;51.976;4.616;2023-06-14T03:04:18;52254.91;;;-140.72;0.00
38197;BME280;26543;51.976;4.616;2023-06-14T03:06:43;52252.88;;;-140.72;0.00
38197;BME280;26543;51.976;4.616;2023-06-14T03:09:09;52250.84;;;-140.72;0.00
38197;BME280;26543;51.976;4.616;2023-06-14T03:11:34;52256.94;;;-140.72;0.00
38197;BME280;26543;51.976;4.616;2023-06-14T03:14:00;52256.94;;;-140.72;0.00
38197;BME280;26543;51.976;4.616;2023-06-14T03:16:29;52236.66;;;-140.72;0.00
38197;BME280;26543;51.976;4.616;2023-06-14T03:18:55;52285.34;;;-140.72;0.00
38197;BME280;26543;51.976;4.616;2023-06-14T03:21:37;52240.72;;;-140.72;0.00
38197;BME280;26543;51.976;4.616;2023-06-14T03:24:11;52236.66;;;-140.72;0.00
38197;BME280;26543;51.976;4.616;2023-06-14T03:26:37;52269.13;;;-140.72;0.00
38197;BME280;26543;51.976;4.616;2023-06-14T03:29:02;52252.88;;;-140.72;0.00
38197;BME280;26543;51.976;4.616;2023-06-14T03:31:29;52311.72;;;-140.72;0.00
38197;BME280;26543;51.976;4.616;2023-06-14T03:33:57;52279.25;;;-140.72;0.00
38197;BME280;26543;51.976;4.616;2023-06-14T03:36:22;52263.03;;;-140.72;0.00
38197;BME280;26543;51.976;4.616;2023-06-14T03:38:48;52275.19;;;-140.72;0.00
38197;BME280;26543;51.976;4.616;2023-06-14T03:41:13;52289.41;;;-140.72;0.00
38197;BME280;26543;51.976;4.616;2023-06-14T03:43:38;52281.28;;;-140.72;0.00
38197;BME280;26543;51.976;4.616;2023-06-14T03:46:03;52293.47;;;-140.72;0.00
38197;BME280;26543;51.976;4.616;2023-06-14T03:48:29;52315.78;;;-140.72;0.00
38197;BME280;26543;51.976;4.616;2023-06-14T03:50:54;52263.03;;;-140.72;0.00
38197;BME280;26543;51.976;4.616;2023-06-14T03:53:21;52263.03;;;-140.72;0.00
38197;BME280;26543;51.976;4.616;2023-06-14T03:58:19;52263.03;;;-140.72;0.00
38197;BME280;26543;51.976;4.616;2023-06-14T04:00:44;52301.59;;;-140.72;0.00
38197;BME280;26543;51.976;4.616;2023-06-14T04:03:10;52281.28;;;-140.72;0.00
38197;BME280;26543;51.976;4.616;2023-06-14T04:05:38;52267.09;;;-140.72;0.00
38197;BME280;26543;51.976;4.616;2023-06-14T04:08:07;52277.22;;;-140.72;0.00
38197;BME280;26543;51.976;4.616;2023-06-14T04:10:34;52279.25;;;-140.72;0.00
38197;BME280;26543;51.976;4.616;2023-06-14T04:12:59;52283.31;;;-140.72;0.00
38197;BME280;26543;51.976;4.616;2023-06-14T04:15:24;52285.34;;;-140.72;0.00
38197;BME280;26543;51.976;4.616;2023-06-14T04:17:51;52289.41;;;-140.72;0.00
38197;BME280;26543;51.976;4.616;2023-06-14T04:20:17;52261.00;;;-140.72;0.00
38197;BME280;26543;51.976;4.616;2023-06-14T04:22:43;52281.28;;;-140.72;0.00
38197;BME280;26543;51.976;4.616;2023-06-14T04:27:58;52269.13;;;-140.72;0.00
38197;BME280;26543;51.976;4.616;2023-06-14T04:30:23;52261.00;;;-140.72;0.00
38197;BME280;26543;51.976;4.616;2023-06-14T04:32:51;52285.34;;;-140.72;0.00
38197;BME280;26543;51.976;4.616;2023-06-14T04:35:18;52246.78;;;-140.72;0.00
38197;BME280;26543;51.976;4.616;2023-06-14T04:37:43;52256.94;;;-140.72;0.00
38197;BME280;26543;51.976;4.616;2023-06-14T04:40:10;52263.03;;;-140.72;0.00
38197;BME280;26543;51.976;4.616;2023-06-14T04:42:35;52293.47;;;-140.72;0.00
38197;BME280;26543;51.976;4.616;2023-06-14T04:45:02;52261.00;;;-140.72;0.00
38197;BME280;26543;51.976;4.616;2023-06-14T04:47:27;52281.28;;;-140.72;0.00
38197;BME280;26543;51.976;4.616;2023-06-14T04:49:54;52261.00;;;-140.72;0.00
38197;BME280;26543;51.976;4.616;2023-06-14T04:52:19;52246.78;;;-140.72;0.00
38197;BME280;26543;51.976;4.616;2023-06-14T04:54:46;52265.06;;;-140.72;0.00
38197;BME280;26543;51.976;4.616;2023-06-14T04:57:11;52293.47;;;-140.72;0.00
38197;BME280;26543;51.976;4.616;2023-06-14T04:59:42;52248.81;;;-140.72;0.00
38197;BME280;26543;51.976;4.616;2023-06-14T05:02:09;52261.00;;;-140.72;0.00
38197;BME280;26543;51.976;4.616;2023-06-14T05:04:34;52283.31;;;-140.72;0.00
38197;BME280;26543;51.976;4.616;2023-06-14T05:06:59;52254.91;;;-140.72;0.00
38197;BME280;26543;51.976;4.616;2023-06-14T05:09:26;52261.00;;;-140.72;0.00
38197;BME280;26543;51.976;4.616;2023-06-14T05:11:51;52230.56;;;-140.72;0.00
38197;BME280;26543;51.976;4.616;2023-06-14T05:14:16;52248.81;;;-140.72;0.00
38197;BME280;26543;51.976;4.616;2023-06-14T05:16:42;52236.66;;;-140.72;0.00
38197;BME280;26543;51.976;4.616;2023-06-14T05:19:09;52230.56;;;-140.72;0.00
38197;BME280;26543;51.976;4.616;2023-06-14T05:21:35;52230.56;;;-140.72;0.00
38197;BME280;26543;51.976;4.616;2023-06-14T05:24:00;52261.00;;;-140.72;0.00
38197;BME280;26543;51.976;4.616;2023-06-14T05:26:26;52212.31;;;-140.72;0.00
38197;BME280;26543;51.976;4.616;2023-06-14T05:28:55;52240.72;;;-140.72;0.00
38197;BME280;26543;51.976;4.616;2023-06-14T05:31:30;52240.72;;;-140.72;0.00
38197;BME280;26543;51.976;4.616;2023-06-14T05:33:55;52214.34;;;-140.72;0.00
38197;BME280;26543;51.976;4.616;2023-06-14T05:36:21;52236.66;;;-140.72;0.00
38197;BME280;26543;51.976;4.616;2023-06-14T05:38:47;52208.25;;;-140.72;0.00
38197;BME280;26543;51.976;4.616;2023-06-14T05:41:18;52175.78;;;-140.72;0.00
38197;BME280;26543;51.976;4.616;2023-06-14T05:43:45;52228.53;;;-140.72;0.00
38197;BME280;26543;51.976;4.616;2023-06-14T05:46:11;52200.13;;;-140.72;0.00
38197;BME280;26543;51.976;4.616;2023-06-14T05:48:36;52232.59;;;-140.72;0.00
38197;BME280;26543;51.976;4.616;2023-06-14T05:51:01;52204.19;;;-140.72;0.00
38197;BME280;26543;51.976;4.616;2023-06-14T05:53:26;52226.50;;;-140.72;0.00
38197;BME280;26543;51.976;4.616;2023-06-14T05:55:51;52218.38;;;-140.72;0.00
38197;BME280;26543;51.976;4.616;2023-06-14T05:58:18;52228.53;;;-140.72;0.00
38197;BME280;26543;51.976;4.616;2023-06-14T06:00:44;52194.03;;;-140.72;0.00
38197;BME280;26543;51.976;4.616;2023-06-14T06:03:09;52192.00;;;-140.72;0.00
38197;BME280;26543;51.976;4.616;2023-06-14T06:05:36;52208.25;;;-140.72;0.00
38197;BME280;26543;51.976;4.616;2023-06-14T06:08:03;52232.59;;;-140.72;0.00
38197;BME280;26543;51.976;4.616;2023-06-14T06:10:28;52194.03;;;-140.72;0.00
38197;BME280;26543;51.976;4.616;2023-06-14T06:12:54;52153.47;;;-140.72;0.00
38197;BME280;26543;51.976;4.616;2023-06-14T06:15:19;52171.72;;;-140.72;0.00
38197;BME280;26543;51.976;4.616;2023-06-14T06:17:45;52185.94;;;-140.72;0.00
38197;BME280;26543;51.976;4.616;2023-06-14T06:20:10;52133.16;;;-140.72;0.00
38197;BME280;26543;51.976;4.616;2023-06-14T06:22:36;52167.66;;;-140.72;0.00
38197;BME280;26543;51.976;4.616;2023-06-14T06:25:02;52149.41;;;-140.72;0.00
38197;BME280;26543;51.976;4.616;2023-06-14T06:27:31;52179.84;;;-140.72;0.00
38197;BME280;26543;51.976;4.616;2023-06-14T06:29:57;52173.75;;;-140.72;0.00
38197;BME280;26543;51.976;4.616;2023-06-14T06:32:22;52155.50;;;-140.72;0.00
38197;BME280;26543;51.976;4.616;2023-06-14T06:34:47;52147.38;;;-140.72;0.00
38197;BME280;26543;51.976;4.616;2023-06-14T06:37:19;52137.22;;;-140.72;0.00
38197;BME280;26543;51.976;4.616;2023-06-14T06:39:59;52151.44;;;-140.72;0.00
38197;BME280;26543;51.976;4.616;2023-06-14T06:42:24;52153.47;;;-140.72;0.00
38197;BME280;26543;51.976;4.616;2023-06-14T06:44:50;52106.78;;;-140.72;0.00
38197;BME280;26543;51.976;4.616;2023-06-14T06:47:15;52141.28;;;-140.72;0.00
38197;BME280;26543;51.976;4.616;2023-06-14T06:49:40;52151.44;;;-140.72;0.00
38197;BME280;26543;51.976;4.616;2023-06-14T06:52:06;52175.78;;;-140.72;0.00
38197;BME280;26543;51.976;4.616;2023-06-14T06:54:44;52151.44;;;-140.72;0.00
38197;BME280;26543;51.976;4.616;2023-06-14T06:57:09;52129.13;;;-140.72;0.00
38197;BME280;26543;51.976;4.616;2023-06-14T06:59:35;52131.16;;;-140.72;0.00
38197;BME280;26543;51.976;4.616;2023-06-14T07:02:01;52137.22;;;-140.72;0.00
38197;BME280;26543;51.976;4.616;2023-06-14T07:04:26;52116.94;;;-140.72;0.00
38197;BME280;26543;51.976;4.616;2023-06-14T07:06:51;52149.41;;;-140.72;0.00
38197;BME280;26543;51.976;4.616;2023-06-14T07:09:18;52104.75;;;-140.72;0.00
38197;BME280;26543;51.976;4.616;2023-06-14T07:11:54;52125.06;;;-140.72;0.00
38197;BME280;26543;51.976;4.616;2023-06-14T07:14:19;52112.88;;;-140.72;0.00
38197;BME280;26543;51.976;4.616;2023-06-14T07:16:45;52147.38;;;-140.72;0.00
38197;BME280;26543;51.976;4.616;2023-06-14T07:19:13;52094.63;;;-140.72;0.00
38197;BME280;26543;51.976;4.616;2023-06-14T07:21:39;52078.38;;;-140.72;0.00
38197;BME280;26543;51.976;4.616;2023-06-14T07:24:05;52074.34;;;-140.72;0.00
38197;BME280;26543;51.976;4.616;2023-06-14T07:26:31;52100.72;;;-140.72;0.00
38197;BME280;26543;51.976;4.616;2023-06-14T07:28:56;52094.63;;;-140.72;0.00
38197;BME280;26543;51.976;4.616;2023-06-14T07:31:21;52088.53;;;-140.72;0.00
38197;BME280;26543;51.976;4.616;2023-06-14T07:33:47;52114.91;;;-140.72;0.00
38197;BME280;26543;51.976;4.616;2023-06-14T07:36:12;52123.03;;;-140.72;0.00
38197;BME280;26543;51.976;4.616;2023-06-14T07:38:37;52086.50;;;-140.72;0.00
38197;BME280;26543;51.976;4.616;2023-06-14T07:41:02;52076.34;;;-140.72;0.00
38197;BME280;26543;51.976;4.616;2023-06-14T07:43:28;52100.72;;;-140.72;0.00
38197;BME280;26543;51.976;4.616;2023-06-14T07:48:45;52021.56;;;-140.72;0.00
38197;BME280;26543;51.976;4.616;2023-06-14T07:51:10;52088.53;;;-140.72;0.00
38197;BME280;26543;51.976;4.616;2023-06-14T07:53:35;52078.38;;;-140.72;0.00
38197;BME280;26543;51.976;4.616;2023-06-14T07:56:07;52045.94;;;-140.72;0.00
38197;BME280;26543;51.976;4.616;2023-06-14T07:58:45;52033.75;;;-140.72;0.00
38197;BME280;26543;51.976;4.616;2023-06-14T08:01:11;52049.97;;;-140.72;0.00
38197;BME280;26543;51.976;4.616;2023-06-14T08:03:37;52021.56;;;-140.72;0.00
38197;BME280;26543;51.976;4.616;2023-06-14T08:06:02;51983.03;;;-140.72;0.00
38197;BME280;26543;51.976;4.616;2023-06-14T08:08:34;52041.88;;;-140.72;0.00
38197;BME280;26543;51.976;4.616;2023-06-14T08:10:59;52003.31;;;-140.72;0.00
38197;BME280;26543;51.976;4.616;2023-06-14T08:13:25;51968.81;;;-140.72;0.00
38197;BME280;26543;51.976;4.616;2023-06-14T08:15:50;51993.19;;;-140.72;0.00
38197;BME280;26543;51.976;4.616;2023-06-14T08:18:16;52009.41;;;-140.72;0.00
38197;BME280;26543;51.976;4.616;2023-06-14T08:20:41;51954.63;;;-140.72;0.00
38197;BME280;26543;51.976;4.616;2023-06-14T08:23:06;51968.81;;;-140.72;0.00
38197;BME280;26543;51.976;4.616;2023-06-14T08:25:33;51974.91;;;-140.72;0.00
38197;BME280;26543;51.976;4.616;2023-06-14T08:27:59;51950.56;;;-140.72;0.00
38197;BME280;26543;51.976;4.616;2023-06-14T08:30:25;51964.78;;;-140.72;0.00
38197;BME280;26543;51.976;4.616;2023-06-14T08:32:50;51946.50;;;-140.72;0.00
38197;BME280;26543;51.976;4.616;2023-06-14T08:35:16;51942.44;;;-140.72;0.00
38197;BME280;26543;51.976;4.616;2023-06-14T08:37:43;51940.41;;;-140.72;0.00
38197;BME280;26543;51.976;4.616;2023-06-14T08:40:13;51946.50;;;-140.72;0.00
38197;BME280;26543;51.976;4.616;2023-06-14T08:42:42;51942.44;;;-140.72;0.00
38197;BME280;26543;51.976;4.616;2023-06-14T08:45:08;51932.31;;;-140.72;0.00
38197;BME280;26543;51.976;4.616;2023-06-14T08:47:33;51928.25;;;-140.72;0.00
38197;BME280;26543;51.976;4.616;2023-06-14T08:50:01;51883.63;;;-140.72;0.00
38197;BME280;26543;51.976;4.616;2023-06-14T08:52:28;51875.50;;;-140.72;0.00
38197;BME280;26543;51.976;4.616;2023-06-14T08:54:58;51905.94;;;-140.72;0.00
38197;BME280;26543;51.976;4.616;2023-06-14T08:57:25;51861.28;;;-140.72;0.00
38197;BME280;26543;51.976;4.616;2023-06-14T08:59:55;51907.97;;;-140.72;0.00
38197;BME280;26543;51.976;4.616;2023-06-14T09:02:22;51877.53;;;-140.72;0.00
38197;BME280;26543;51.976;4.616;2023-06-14T09:04:47;51834.91;;;-140.72;0.00
38197;BME280;26543;51.976;4.616;2023-06-14T09:07:14;51804.50;;;-140.72;0.00
38197;BME280;26543;51.976;4.616;2023-06-14T09:09:40;51838.97;;;-140.72;0.00
38197;BME280;26543;51.976;4.616;2023-06-14T09:12:07;51794.34;;;-140.72;0.00
38197;BME280;26543;51.976;4.616;2023-06-14T09:14:35;51832.91;;;-140.72;0.00
38197;BME280;26543;51.976;4.616;2023-06-14T09:17:03;51790.28;;;-140.72;0.00
38197;BME280;26543;51.976;4.616;2023-06-14T09:19:28;51804.50;;;-140.72;0.00
38197;BME280;26543;51.976;4.616;2023-06-14T09:21:53;51820.72;;;-140.72;0.00
38197;BME280;26543;51.976;4.616;2023-06-14T09:24:20;51761.88;;;-140.72;0.00
38197;BME280;26543;51.976;4.616;2023-06-14T09:26:50;51723.34;;;-140.72;0.00
38197;BME280;26543;51.976;4.616;2023-06-14T09:29:16;51782.16;;;-140.72;0.00
38197;BME280;26543;51.976;4.616;2023-06-14T09:31:41;51751.75;;;-140.72;0.00
38197;BME280;26543;51.976;4.616;2023-06-14T09:34:06;51729.44;;;-140.72;0.00
38197;BME280;26543;51.976;4.616;2023-06-14T09:36:32;51696.97;;;-140.72;0.00
38197;BME280;26543;51.976;4.616;2023-06-14T09:41:32;51696.97;;;-140.72;0.00
38197;BME280;26543;51.976;4.616;2023-06-14T09:44:00;51715.22;;;-140.72;0.00
38197;BME280;26543;51.976;4.616;2023-06-14T09:46:27;51666.53;;;-140.72;0.00
38197;BME280;26543;51.976;4.616;2023-06-14T09:48:53;51650.31;;;-140.72;0.00
38197;BME280;26543;51.976;4.616;2023-06-14T09:51:18;51619.88;;;-140.72;0.00
38197;BME280;26543;51.976;4.616;2023-06-14T09:53:46;51605.66;;;-140.72;0.00
38197;BME280;26543;51.976;4.616;2023-06-14T09:56:11;51583.34;;;-140.72;0.00
38197;BME280;26543;51.976;4.616;2023-06-14T09:58:38;51652.34;;;-140.72;0.00
38197;BME280;26543;51.976;4.616;2023-06-14T10:01:04;51619.88;;;-140.72;0.00
38197;BME280;26543;51.976;4.616;2023-06-14T10:03:33;51607.69;;;-140.72;0.00
38197;BME280;26543;51.976;4.616;2023-06-14T10:05:59;51613.78;;;-140.72;0.00
38197;BME280;26543;51.976;4.616;2023-06-14T10:08:27;51548.88;;;-140.72;0.00
38197;BME280;26543;51.976;4.616;2023-06-14T10:10:55;51585.38;;;-140.72;0.00
38197;BME280;26543;51.976;4.616;2023-06-14T10:13:21;51544.81;;;-140.72;0.00
38197;BME280;26543;51.976;4.616;2023-06-14T10:15:58;51542.78;;;-140.72;0.00
38197;BME280;26543;51.976;4.616;2023-06-14T10:23:19;51496.13;;;-140.72;0.00
38197;BME280;26543;51.976;4.616;2023-06-14T10:25:49;51429.19;;;-140.72;0.00
38197;BME280;26543;51.976;4.616;2023-06-14T10:28:18;51437.28;;;-140.72;0.00
38197;BME280;26543;51.976;4.616;2023-06-14T10:33:29;51475.84;;;-140.72;0.00
38197;BME280;26543;51.976;4.616;2023-06-14T10:36:40;51479.91;;;-140.72;0.00
38197;BME280;26543;51.976;4.616;2023-06-14T10:38:39;51477.88;;;-140.72;0.00
38197;BME280;26543;51.976;4.616;2023-06-14T10:41:07;51449.47;;;-140.72;0.00
38197;BME280;26543;51.976;4.616;2023-06-14T10:43:32;51417.00;;;-140.72;0.00
38197;BME280;26543;51.976;4.616;2023-06-14T10:46:16;51368.31;;;-140.72;0.00
38197;BME280;26543;51.976;4.616;2023-06-14T10:48:42;51366.28;;;-140.72;0.00
38197;BME280;26543;51.976;4.616;2023-06-14T10:51:18;51364.25;;;-140.72;0.00
38197;BME280;26543;51.976;4.616;2023-06-14T10:53:47;51343.97;;;-140.72;0.00
38197;BME280;26543;51.976;4.616;2023-06-14T10:56:23;51350.06;;;-140.72;0.00
38197;BME280;26543;51.976;4.616;2023-06-14T10:58:50;51335.88;;;-140.72;0.00
38197;BME280;26543;51.976;4.616;2023-06-14T11:01:15;51376.44;;;-140.72;0.00
38197;BME280;26543;51.976;4.616;2023-06-14T11:06:13;51356.16;;;-140.72;0.00
38197;BME280;26543;51.976;4.616;2023-06-14T11:11:08;51354.13;;;-140.72;0.00
38197;BME280;26543;51.976;4.616;2023-06-14T11:13:34;51352.09;;;-140.72;0.00
38197;BME280;26543;51.976;4.616;2023-06-14T11:16:01;51343.97;;;-140.72;0.00
38197;BME280;26543;51.976;4.616;2023-06-14T11:18:28;51295.28;;;-140.72;0.00
38197;BME280;26543;51.976;4.616;2023-06-14T11:20:53;51317.59;;;-140.72;0.00
38197;BME280;26543;51.976;4.616;2023-06-14T11:23:18;51303.41;;;-140.72;0.00
38197;BME280;26543;51.976;4.616;2023-06-14T11:25:54;51346.00;;;-140.72;0.00
38197;BME280;26543;51.976;4.616;2023-06-14T11:28:19;51341.94;;;-140.72;0.00
38197;BME280;26543;51.976;4.616;2023-06-14T11:30:46;51315.56;;;-140.72;0.00
38197;BME280;26543;51.976;4.616;2023-06-14T11:33:14;51374.41;;;-140.72;0.00
38197;BME280;26543;51.976;4.616;2023-06-14T11:35:42;51343.97;;;-140.72;0.00
38197;BME280;26543;51.976;4.616;2023-06-14T11:38:07;51364.25;;;-140.72;0.00
38197;BME280;26543;51.976;4.616;2023-06-14T11:40:34;51335.88;;;-140.72;0.00
38197;BME280;26543;51.976;4.616;2023-06-14T11:43:02;51382.53;;;-140.72;0.00
38197;BME280;26543;51.976;4.616;2023-06-14T11:45:28;51319.63;;;-140.72;0.00
38197;BME280;26543;51.976;4.616;2023-06-14T11:47:54;51287.19;;;-140.72;0.00
38197;BME280;26543;51.976;4.616;2023-06-14T11:50:21;51260.81;;;-140.72;0.00
38197;BME280;26543;51.976;4.616;2023-06-14T11:52:51;51240.53;;;-140.72;0.00
38197;BME280;26543;51.976;4.616;2023-06-14T11:55:17;51246.59;;;-140.72;0.00
38197;BME280;26543;51.976;4.616;2023-06-14T11:57:42;51291.22;;;-140.72;0.00
38197;BME280;26543;51.976;4.616;2023-06-14T12:00:08;51266.88;;;-140.72;0.00
38197;BME280;26543;51.976;4.616;2023-06-14T12:02:37;51281.09;;;-140.72;0.00
38197;BME280;26543;51.976;4.616;2023-06-14T12:05:06;51210.09;;;-140.72;0.00
38197;BME280;26543;51.976;4.616;2023-06-14T12:07:38;51226.31;;;-140.72;0.00
38197;BME280;26543;51.976;4.616;2023-06-14T12:10:10;51220.22;;;-140.72;0.00
38197;BME280;26543;51.976;4.616;2023-06-14T12:12:36;51236.47;;;-140.72;0.00
38197;BME280;26543;51.976;4.616;2023-06-14T12:15:03;51232.41;;;-140.72;0.00
38197;BME280;26543;51.976;4.616;2023-06-14T12:20:32;51283.13;;;-140.72;0.00
38197;BME280;26543;51.976;4.616;2023-06-14T12:23:00;51193.88;;;-140.72;0.00
38197;BME280;26543;51.976;4.616;2023-06-14T12:25:31;51220.22;;;-140.72;0.00
38197;BME280;26543;51.976;4.616;2023-06-14T12:27:57;51214.16;;;-140.72;0.00
38197;BME280;26543;51.976;4.616;2023-06-14T12:30:23;51240.53;;;-140.72;0.00
38197;BME280;26543;51.976;4.616;2023-06-14T12:32:48;51224.28;;;-140.72;0.00
38197;BME280;26543;51.976;4.616;2023-06-14T12:35:14;51155.31;;;-140.72;0.00
38197;BME280;26543;51.976;4.616;2023-06-14T12:37:39;51254.72;;;-140.72;0.00
38197;BME280;26543;51.976;4.616;2023-06-14T12:40:04;51230.38;;;-140.72;0.00
38197;BME280;26543;51.976;4.616;2023-06-14T12:42:32;51175.59;;;-140.72;0.00
38197;BME280;26543;51.976;4.616;2023-06-14T12:44:58;51169.53;;;-140.72;0.00
38197;BME280;26543;51.976;4.616;2023-06-14T12:47:23;51220.22;;;-140.72;0.00
38197;BME280;26543;51.976;4.616;2023-06-14T12:49:49;51232.41;;;-140.72;0.00
38197;BME280;26543;51.976;4.616;2023-06-14T12:52:14;51250.66;;;-140.72;0.00
38197;BME280;26543;51.976;4.616;2023-06-14T12:54:39;51199.94;;;-140.72;0.00
38197;BME280;26543;51.976;4.616;2023-06-14T12:57:05;51226.31;;;-140.72;0.00
38197;BME280;26543;51.976;4.616;2023-06-14T12:59:30;51204.00;;;-140.72;0.00
38197;BME280;26543;51.976;4.616;2023-06-14T13:02:00;51222.25;;;-140.72;0.00
38197;BME280;26543;51.976;4.616;2023-06-14T13:04:25;51214.16;;;-140.72;0.00
38197;BME280;26543;51.976;4.616;2023-06-14T13:06:50;51161.41;;;-140.72;0.00
38197;BME280;26543;51.976;4.616;2023-06-14T13:09:15;51141.13;;;-140.72;0.00
38197;BME280;26543;51.976;4.616;2023-06-14T13:11:41;51206.03;;;-140.72;0.00
38197;BME280;26543;51.976;4.616;2023-06-14T13:14:06;51224.28;;;-140.72;0.00
38197;BME280;26543;51.976;4.616;2023-06-14T13:16:31;51210.09;;;-140.72;0.00
38197;BME280;26543;51.976;4.616;2023-06-14T13:18:56;51191.84;;;-140.72;0.00